createdAt,value
2019-05-13T00:01:55.263Z,81.80
2019-05-13T00:04:25.082Z,82.00
2019-05-13T00:06:57.820Z,81.40
2019-05-13T00:09:27.119Z,81.70
2019-05-13T00:11:56.970Z,81.70
2019-05-13T00:14:27.117Z,81.90
2019-05-13T00:16:57.227Z,82.00
2019-05-13T00:19:27.436Z,81.80
2019-05-13T00:21:57.567Z,82.10
2019-05-13T00:24:27.740Z,82.40
2019-05-13T00:26:57.661Z,82.10
2019-05-13T00:29:27.907Z,81.40
2019-05-13T00:31:58.104Z,81.10
2019-05-13T00:34:28.223Z,81.10
2019-05-13T00:37:08.861Z,81.60
2019-05-13T00:39:29.942Z,81.40
2019-05-13T00:42:00.044Z,81.60
2019-05-13T00:44:29.934Z,81.60
2019-05-13T00:46:59.797Z,81.80
2019-05-13T00:49:29.944Z,82.00
2019-05-13T00:52:00.126Z,81.40
2019-05-13T00:54:30.219Z,80.90
2019-05-13T00:57:04.435Z,81.10
2019-05-13T00:59:54.152Z,81.20
2019-05-13T01:02:24.387Z,81.60
2019-05-13T01:04:54.317Z,81.60
2019-05-13T01:07:28.478Z,81.50
2019-05-13T01:09:56.182Z,81.60
2019-05-13T01:12:26.329Z,81.70
2019-05-13T01:14:56.196Z,82.10
2019-05-13T01:17:26.438Z,81.70
2019-05-13T01:19:56.659Z,82.00
2019-05-13T01:22:26.555Z,81.70
2019-05-13T01:24:56.387Z,81.80
2019-05-13T01:27:26.546Z,82.30
2019-05-13T01:29:56.750Z,81.70
2019-05-13T01:32:26.880Z,81.20
2019-05-13T01:34:57.095Z,80.90
2019-05-13T01:37:39.106Z,80.80
2019-05-13T01:40:00.011Z,80.90
2019-05-13T01:42:29.915Z,81.00
2019-05-13T01:44:59.923Z,81.10
2019-05-13T01:47:30.056Z,81.20
2019-05-13T01:50:00.012Z,81.00
2019-05-13T01:52:31.012Z,81.30
2019-05-13T01:55:03.833Z,80.80
2019-05-13T01:57:34.291Z,80.80
2019-05-13T02:00:06.269Z,80.90
2019-05-13T02:02:36.458Z,81.00
2019-05-13T02:05:06.945Z,80.60
2019-05-13T02:07:37.083Z,81.20
2019-05-13T02:10:09.203Z,81.10
2019-05-13T02:12:40.371Z,81.30
2019-05-13T02:15:11.002Z,81.90
2019-05-13T02:17:41.111Z,82.70
2019-05-13T02:20:11.179Z,82.60
2019-05-13T02:22:41.255Z,83.10
2019-05-13T02:25:13.581Z,83.10
2019-05-13T02:27:43.995Z,82.90
2019-05-13T02:30:16.094Z,83.00
2019-05-13T02:32:46.126Z,82.80
2019-05-13T02:35:15.964Z,83.20
2019-05-13T02:37:45.807Z,83.60
2019-05-13T02:40:16.070Z,84.40
2019-05-13T02:42:46.236Z,83.50
2019-05-13T02:45:16.460Z,83.20
2019-05-13T02:47:46.282Z,82.90
2019-05-13T02:50:16.569Z,82.90
2019-05-13T02:52:46.725Z,82.80
2019-05-13T02:55:16.966Z,83.00
2019-05-13T02:57:47.246Z,83.40
2019-05-13T03:00:17.254Z,83.40
2019-05-13T03:02:47.362Z,84.10
2019-05-13T03:05:17.633Z,83.80
2019-05-13T03:07:48.909Z,83.90
2019-05-13T03:10:22.183Z,84.40
2019-05-13T03:12:53.420Z,84.40
2019-05-13T03:15:23.184Z,83.50
2019-05-13T03:17:55.196Z,83.70
2019-05-13T03:20:25.136Z,83.70
2019-05-13T03:22:55.431Z,84.20
2019-05-13T03:25:44.762Z,84.70
2019-05-13T03:31:19.193Z,84.70
2019-05-13T03:33:55.540Z,85.10
2019-05-13T03:36:26.334Z,84.60
2019-05-13T03:42:22.299Z,84.90
2019-05-13T03:44:56.767Z,85.10
2019-05-13T03:47:33.674Z,85.30
2019-05-13T03:50:04.057Z,85.60
2019-05-13T03:52:34.625Z,86.10
2019-05-13T03:55:06.661Z,86.30
2019-05-13T03:57:37.056Z,85.80
2019-05-13T04:00:08.131Z,86.00
2019-05-13T04:02:38.413Z,86.50
2019-05-13T04:05:08.705Z,86.00
2019-05-13T04:07:38.806Z,86.90
2019-05-13T04:10:09.330Z,86.90
2019-05-13T04:12:42.379Z,86.70
2019-05-13T04:15:12.973Z,86.40
2019-05-13T04:17:43.166Z,86.20
2019-05-13T04:20:13.622Z,85.90
2019-05-13T04:22:43.599Z,86.20
2019-05-13T04:25:13.989Z,86.40
2019-05-13T04:27:43.933Z,85.80
2019-05-13T04:30:14.395Z,85.90
2019-05-13T04:32:44.594Z,85.90
2019-05-13T04:35:14.822Z,85.90
2019-05-13T04:37:45.054Z,86.00
2019-05-13T04:40:15.401Z,85.80
2019-05-13T04:42:45.706Z,85.70
2019-05-13T04:45:15.683Z,85.10
2019-05-13T04:47:45.992Z,84.90
2019-05-13T04:50:16.263Z,84.70
2019-05-13T04:52:46.168Z,84.70
2019-05-13T04:55:16.365Z,84.40
2019-05-13T04:57:46.598Z,84.20
2019-05-13T05:00:22.533Z,84.00
2019-05-13T05:02:57.439Z,83.80
2019-05-13T05:06:03.230Z,83.80
2019-05-13T05:08:57.589Z,83.70
2019-05-13T05:11:48.487Z,83.90
2019-05-13T05:14:44.151Z,83.50
2019-05-13T05:17:37.497Z,83.40
2019-05-13T05:20:12.949Z,83.40
2019-05-13T05:23:01.976Z,83.90
2019-05-13T05:25:38.132Z,83.70
2019-05-13T05:28:27.595Z,83.80
2019-05-13T05:34:12.047Z,83.10
2019-05-13T05:36:56.894Z,83.50
2019-05-13T05:39:27.799Z,83.40
2019-05-13T05:41:59.180Z,83.50
2019-05-13T05:44:32.547Z,83.70
2019-05-13T05:47:04.796Z,83.60
2019-05-13T05:49:36.502Z,83.70
2019-05-13T05:52:07.637Z,83.80
2019-05-13T05:54:42.042Z,83.70
2019-05-13T05:57:12.166Z,84.40
2019-05-13T05:59:43.821Z,83.90
2019-05-13T06:02:13.940Z,82.80
2019-05-13T06:04:46.602Z,82.80
2019-05-13T06:07:16.979Z,80.70
2019-05-13T06:09:47.140Z,79.80
2019-05-13T06:12:18.353Z,80.20
2019-05-13T06:14:48.700Z,79.10
2019-05-13T06:17:18.797Z,78.60
2019-05-13T06:19:51.120Z,76.50
2019-05-13T06:22:21.677Z,76.30
2019-05-13T06:24:52.239Z,74.50
2019-05-13T06:27:22.657Z,75.30
2019-05-13T06:29:53.094Z,74.60
2019-05-13T06:32:26.253Z,73.70
2019-05-13T06:34:55.834Z,72.80
2019-05-13T06:37:26.131Z,73.70
2019-05-13T06:39:57.075Z,73.30
2019-05-13T06:42:27.205Z,72.10
2019-05-13T06:44:57.368Z,72.20
2019-05-13T06:47:27.323Z,70.80
2019-05-13T06:49:57.557Z,70.20
2019-05-13T06:52:27.529Z,70.50
2019-05-13T06:54:57.722Z,69.70
2019-05-13T06:57:27.832Z,69.10
2019-05-13T06:59:58.045Z,68.80
2019-05-13T07:02:28.296Z,69.40
2019-05-13T07:04:58.142Z,68.10
2019-05-13T07:07:28.409Z,67.80
2019-05-13T07:09:58.612Z,66.30
2019-05-13T07:12:31.235Z,66.80
2019-05-13T07:15:02.542Z,67.10
2019-05-13T07:17:33.879Z,65.80
2019-05-13T07:20:05.371Z,65.50
2019-05-13T07:22:55.340Z,64.60
2019-05-13T07:25:29.133Z,64.80
2019-05-13T07:28:21.687Z,63.50
2019-05-13T07:30:51.616Z,62.60
2019-05-13T07:33:42.635Z,62.90
2019-05-13T07:36:18.533Z,60.70
2019-05-13T07:39:09.002Z,60.60
2019-05-13T07:41:43.345Z,61.00
2019-05-13T07:47:16.017Z,60.00
2019-05-13T07:49:45.913Z,58.90
2019-05-13T07:52:16.100Z,59.10
2019-05-13T07:54:46.386Z,57.60
2019-05-13T07:57:16.621Z,57.30
2019-05-13T07:59:46.561Z,57.00
2019-05-13T08:02:16.560Z,56.60
2019-05-13T08:04:49.318Z,56.80
2019-05-13T08:07:18.356Z,56.30
2019-05-13T08:09:48.472Z,55.00
2019-05-13T08:12:18.573Z,55.70
2019-05-13T08:14:48.903Z,55.40
2019-05-13T08:17:19.081Z,54.10
2019-05-13T08:19:51.853Z,53.80
2019-05-13T08:22:22.025Z,53.30
2019-05-13T08:24:54.467Z,53.40
2019-05-13T08:27:30.303Z,53.10
2019-05-13T08:29:56.220Z,51.50
2019-05-13T08:32:26.342Z,51.90
2019-05-13T08:35:01.239Z,51.90
2019-05-13T08:37:28.384Z,52.20
2019-05-13T08:40:01.514Z,50.60
2019-05-13T08:42:32.301Z,50.40
2019-05-13T08:45:02.627Z,49.20
2019-05-13T08:47:32.682Z,48.90
2019-05-13T08:50:04.354Z,50.80
2019-05-13T08:52:35.320Z,51.70
2019-05-13T08:55:07.095Z,47.80
2019-05-13T08:57:37.291Z,46.80
2019-05-13T09:00:08.106Z,49.30
2019-05-13T09:02:38.362Z,47.20
2019-05-13T09:05:09.061Z,44.70
2019-05-13T09:07:41.276Z,48.60
2019-05-13T09:10:12.460Z,45.00
2019-05-13T09:12:43.395Z,44.40
2019-05-13T09:15:13.837Z,43.30
2019-05-13T09:17:43.834Z,44.20
2019-05-13T09:20:14.080Z,42.90
2019-05-13T09:22:44.192Z,43.90
2019-05-13T09:25:14.464Z,43.20
2019-05-13T09:27:44.772Z,43.50
2019-05-13T09:30:15.033Z,41.60
2019-05-13T09:32:47.066Z,44.70
2019-05-13T09:35:16.979Z,43.70
2019-05-13T09:37:47.150Z,42.50
2019-05-13T09:40:17.066Z,41.00
2019-05-13T09:42:52.055Z,42.30
2019-05-13T09:45:21.595Z,40.30
2019-05-13T09:47:52.517Z,38.20
2019-05-13T09:50:29.381Z,38.90
2019-05-13T09:52:54.922Z,38.40
2019-05-13T09:57:57.091Z,37.90
2019-05-13T10:00:26.987Z,37.30
2019-05-13T10:02:57.150Z,35.60
2019-05-13T10:05:27.371Z,36.50
2019-05-13T10:07:58.717Z,38.80
2019-05-13T10:10:28.985Z,38.80
2019-05-13T10:13:09.114Z,36.60
2019-05-13T10:15:32.564Z,34.60
2019-05-13T10:18:02.707Z,32.90
2019-05-13T10:20:57.978Z,33.20
2019-05-13T10:23:25.781Z,33.20
2019-05-13T10:25:59.015Z,32.20
2019-05-13T10:28:31.785Z,30.20
2019-05-13T10:31:01.969Z,28.80
2019-05-13T10:33:32.360Z,30.20
2019-05-13T10:36:03.761Z,30.10
2019-05-13T10:38:34.354Z,30.60
2019-05-13T10:41:04.548Z,30.40
2019-05-13T10:43:40.032Z,31.80
2019-05-13T10:46:06.606Z,30.80
2019-05-13T10:48:36.584Z,30.60
2019-05-13T10:51:06.835Z,32.00
2019-05-13T10:53:36.901Z,29.90
2019-05-13T10:56:07.198Z,30.00
2019-05-13T10:58:37.548Z,28.50
2019-05-13T11:01:07.905Z,27.50
2019-05-13T11:03:37.919Z,28.70
2019-05-13T11:06:08.219Z,28.30
2019-05-13T11:08:38.102Z,30.50
2019-05-13T11:11:08.402Z,29.40
2019-05-13T11:13:52.153Z,28.80
2019-05-13T11:16:12.218Z,28.40
2019-05-13T11:18:42.039Z,28.90
2019-05-13T11:21:12.984Z,29.00
2019-05-13T11:23:43.397Z,29.40
2019-05-13T11:26:13.611Z,28.40
2019-05-13T11:28:43.986Z,28.10
2019-05-13T11:31:14.345Z,28.40
2019-05-13T11:33:44.260Z,29.40
2019-05-13T11:36:18.881Z,28.30
2019-05-13T11:38:47.431Z,28.90
2019-05-13T11:41:22.871Z,27.80
2019-05-13T11:44:11.906Z,28.00
2019-05-13T11:46:25.078Z,28.80
2019-05-13T11:48:55.085Z,31.90
2019-05-13T11:51:25.015Z,29.60
2019-05-13T11:53:56.119Z,27.30
2019-05-13T11:56:26.549Z,27.20
2019-05-13T11:58:56.723Z,27.20
2019-05-13T12:01:26.982Z,28.40
2019-05-13T12:03:57.166Z,25.90
2019-05-13T12:06:27.363Z,25.10
2019-05-13T12:08:57.513Z,24.20
2019-05-13T12:11:27.766Z,25.90
2019-05-13T12:13:57.740Z,26.00
2019-05-13T12:16:28.054Z,26.50
2019-05-13T12:18:58.335Z,25.20
2019-05-13T12:21:29.225Z,24.30
2019-05-13T12:24:06.647Z,26.40
2019-05-13T12:26:33.277Z,25.50
2019-05-13T12:29:03.047Z,25.50
2019-05-13T12:31:33.790Z,23.90
2019-05-13T12:34:04.142Z,25.80
2019-05-13T12:36:34.733Z,26.00
2019-05-13T12:39:06.641Z,26.60
2019-05-13T12:41:36.917Z,26.00
2019-05-13T12:44:07.234Z,24.40
2019-05-13T12:46:37.181Z,25.40
2019-05-13T12:49:07.523Z,24.70
2019-05-13T12:51:37.863Z,24.90
2019-05-13T12:54:08.167Z,25.70
2019-05-13T12:56:38.503Z,25.00
2019-05-13T12:59:12.869Z,25.00
2019-05-13T13:01:40.490Z,26.60
2019-05-13T13:04:12.329Z,23.80
2019-05-13T13:06:45.356Z,25.30
2019-05-13T13:09:14.396Z,24.20
2019-05-13T13:11:44.284Z,25.40
2019-05-13T13:14:15.596Z,24.60
2019-05-13T13:16:45.855Z,23.10
2019-05-13T13:19:15.793Z,23.80
2019-05-13T13:21:46.059Z,24.20
2019-05-13T13:24:16.028Z,23.40
2019-05-13T13:26:45.940Z,25.50
2019-05-13T13:29:16.247Z,23.70
2019-05-13T13:31:46.424Z,23.10
2019-05-13T13:34:18.295Z,23.90
2019-05-13T13:36:48.532Z,23.70
2019-05-13T13:39:24.892Z,24.30
2019-05-13T13:41:53.515Z,24.40
2019-05-13T13:44:24.620Z,25.00
2019-05-13T13:46:55.193Z,24.40
2019-05-13T13:49:25.297Z,23.10
2019-05-13T13:51:55.489Z,24.80
2019-05-13T13:54:25.700Z,22.50
2019-05-13T13:56:56.253Z,24.00
2019-05-13T13:59:26.563Z,22.90
2019-05-13T14:01:57.735Z,24.10
2019-05-13T14:04:27.983Z,25.50
2019-05-13T14:06:25.462Z,36.70
2019-05-13T14:09:29.590Z,24.40
2019-05-13T14:12:01.854Z,24.50
2019-05-13T14:14:32.035Z,24.20
2019-05-13T14:17:02.529Z,22.70
2019-05-13T14:19:32.830Z,24.10
2019-05-13T14:22:02.798Z,24.40
2019-05-13T14:24:33.245Z,24.00
2019-05-13T14:27:03.550Z,24.20
2019-05-13T14:29:40.701Z,23.00
2019-05-13T14:32:05.990Z,23.50
2019-05-13T14:34:35.948Z,23.10
2019-05-13T14:37:06.352Z,23.40
2019-05-13T14:39:36.586Z,22.60
2019-05-13T14:42:06.557Z,24.30
2019-05-13T14:44:36.804Z,25.40
2019-05-13T14:47:07.188Z,24.80
2019-05-13T14:49:37.061Z,24.60
2019-05-13T14:52:07.342Z,26.10
2019-05-13T14:54:37.749Z,23.80
2019-05-13T14:57:11.942Z,24.00
2019-05-13T14:59:41.418Z,23.50
2019-05-13T15:02:12.086Z,23.70
2019-05-13T15:04:42.602Z,24.20
2019-05-13T15:07:13.263Z,23.70
2019-05-13T15:09:43.475Z,24.70
2019-05-13T15:12:13.881Z,24.10
2019-05-13T15:14:43.968Z,22.50
2019-05-13T15:17:14.125Z,23.00
2019-05-13T15:19:44.775Z,22.20
2019-05-13T15:22:16.047Z,22.70
2019-05-13T15:24:46.436Z,24.30
2019-05-13T15:27:16.776Z,22.70
2019-05-13T15:29:47.943Z,23.80
2019-05-13T15:32:17.936Z,22.80
2019-05-13T15:34:48.362Z,23.00
2019-05-13T15:37:18.580Z,23.40
2019-05-13T15:39:48.795Z,23.40
2019-05-13T15:42:20.826Z,23.40
2019-05-13T15:44:52.403Z,23.50
2019-05-13T15:47:26.360Z,23.70
2019-05-13T15:49:53.885Z,24.60
2019-05-13T15:52:23.750Z,23.80
2019-05-13T15:54:53.863Z,23.70
2019-05-13T15:57:23.722Z,23.80
2019-05-13T15:59:53.714Z,21.70
2019-05-13T16:02:24.120Z,23.00
2019-05-13T16:05:00.959Z,23.00
2019-05-13T16:07:26.067Z,22.70
2019-05-13T16:09:56.404Z,23.40
2019-05-13T16:12:26.711Z,23.00
2019-05-13T16:14:57.106Z,24.00
2019-05-13T16:17:40.615Z,23.80
2019-05-13T16:20:01.163Z,24.20
2019-05-13T16:22:31.521Z,23.00
2019-05-13T16:25:01.685Z,24.50
2019-05-13T16:27:32.030Z,24.70
2019-05-13T16:30:02.584Z,24.90
2019-05-13T16:32:34.798Z,23.70
2019-05-13T16:35:07.129Z,23.70
2019-05-13T16:37:37.435Z,23.70
2019-05-13T16:40:08.268Z,25.70
2019-05-13T16:42:38.681Z,24.80
2019-05-13T16:45:09.218Z,25.50
2019-05-13T16:47:55.833Z,25.30
2019-05-13T16:50:12.636Z,24.50
2019-05-13T16:52:43.032Z,24.10
2019-05-13T16:55:13.476Z,25.40
2019-05-13T16:57:43.487Z,24.10
2019-05-13T17:00:14.158Z,24.40
2019-05-13T17:02:44.314Z,24.80
2019-05-13T17:05:14.833Z,25.40
2019-05-13T17:07:45.284Z,25.10
2019-05-13T17:10:15.916Z,25.00
2019-05-13T17:12:46.374Z,26.00
2019-05-13T17:15:17.814Z,26.30
2019-05-13T17:17:48.036Z,27.30
2019-05-13T17:20:18.552Z,26.50
2019-05-13T17:22:51.140Z,27.50
2019-05-13T17:25:20.541Z,27.60
2019-05-13T17:27:51.456Z,26.20
2019-05-13T17:30:23.267Z,27.50
2019-05-13T17:32:53.594Z,27.20
2019-05-13T17:35:23.904Z,25.60
2019-05-13T17:37:54.212Z,26.70
2019-05-13T17:40:24.158Z,28.30
2019-05-13T17:42:54.300Z,27.40
2019-05-13T17:45:24.550Z,27.00
2019-05-13T17:47:54.767Z,27.00
2019-05-13T17:50:25.058Z,26.30
2019-05-13T17:52:55.262Z,26.30
2019-05-13T17:55:25.469Z,26.20
2019-05-13T17:57:55.796Z,26.30
2019-05-13T18:00:26.171Z,26.50
2019-05-13T18:02:56.431Z,26.70
2019-05-13T18:05:26.328Z,27.30
2019-05-13T18:07:56.645Z,27.00
2019-05-13T18:10:26.794Z,27.40
2019-05-13T18:12:57.179Z,27.50
2019-05-13T18:15:27.216Z,27.30
2019-05-13T18:17:57.816Z,27.50
2019-05-13T18:20:27.724Z,27.70
2019-05-13T18:22:57.940Z,28.50
2019-05-13T18:25:28.418Z,29.50
2019-05-13T18:27:58.767Z,29.60
2019-05-13T18:30:29.002Z,29.50
2019-05-13T18:33:01.861Z,29.10
2019-05-13T18:35:32.082Z,30.70
2019-05-13T18:38:02.553Z,30.20
2019-05-13T18:40:33.072Z,29.50
2019-05-13T18:43:03.515Z,29.20
2019-05-13T18:45:33.875Z,29.60
2019-05-13T18:48:04.362Z,30.20
2019-05-13T18:50:34.664Z,30.70
2019-05-13T18:53:04.748Z,30.50
2019-05-13T18:55:35.047Z,29.80
2019-05-13T18:58:05.468Z,32.00
2019-05-13T19:00:35.806Z,31.60
2019-05-13T19:03:06.118Z,32.00
2019-05-13T19:05:36.140Z,32.10
2019-05-13T19:08:06.302Z,32.50
2019-05-13T19:10:36.733Z,32.10
2019-05-13T19:13:06.787Z,33.00
2019-05-13T19:15:37.224Z,34.30
2019-05-13T19:18:07.394Z,34.20
2019-05-13T19:20:37.656Z,35.30
2019-05-13T19:23:07.846Z,34.10
2019-05-13T19:25:42.065Z,34.30
2019-05-13T19:28:11.818Z,34.60
2019-05-13T19:30:42.019Z,33.60
2019-05-13T19:33:13.034Z,34.30
2019-05-13T19:35:43.420Z,33.70
2019-05-13T19:38:13.482Z,33.80
2019-05-13T19:40:43.521Z,34.20
2019-05-13T19:43:13.735Z,35.80
2019-05-13T19:45:44.105Z,35.30
2019-05-13T19:48:15.482Z,35.20
2019-05-13T19:50:45.774Z,35.80
2019-05-13T19:53:15.962Z,36.60
2019-05-13T19:55:46.282Z,38.20
2019-05-13T19:58:16.614Z,39.60
2019-05-13T20:00:46.874Z,42.20
2019-05-13T20:03:17.284Z,43.50
2019-05-13T20:05:47.444Z,44.50
2019-05-13T20:08:17.738Z,45.10
2019-05-13T20:10:47.971Z,46.20
2019-05-13T20:13:18.309Z,46.90
2019-05-13T20:15:48.597Z,48.40
2019-05-13T20:18:18.621Z,48.20
2019-05-13T20:20:48.800Z,48.90
2019-05-13T20:23:21.173Z,49.20
2019-05-13T20:25:52.434Z,50.40
2019-05-13T20:28:23.738Z,50.20
2019-05-13T20:30:54.047Z,51.00
2019-05-13T20:33:24.309Z,52.00
2019-05-13T20:35:54.223Z,51.60
2019-05-13T20:38:24.448Z,51.80
2019-05-13T20:40:54.826Z,52.10
2019-05-13T20:43:25.795Z,52.20
2019-05-13T20:45:55.896Z,52.80
2019-05-13T20:48:26.212Z,52.70
2019-05-13T20:50:56.315Z,52.60
2019-05-13T20:53:26.351Z,52.60
2019-05-13T20:55:56.531Z,53.70
2019-05-13T20:58:26.715Z,54.00
2019-05-13T21:00:57.008Z,54.30
2019-05-13T21:03:28.047Z,54.90
2019-05-13T21:05:58.053Z,55.60
2019-05-13T21:08:28.391Z,56.10
2019-05-13T21:10:58.240Z,56.40
2019-05-13T21:13:28.492Z,56.50
2019-05-13T21:15:58.659Z,56.90
2019-05-13T21:18:28.552Z,57.50
2019-05-13T21:20:58.793Z,57.10
2019-05-13T21:23:31.062Z,58.00
2019-05-13T21:26:01.638Z,57.90
2019-05-13T21:28:32.068Z,58.00
2019-05-13T21:31:02.378Z,58.60
2019-05-13T21:33:51.926Z,59.30
2019-05-13T21:36:22.193Z,59.50
2019-05-13T21:38:52.416Z,60.40
2019-05-13T21:41:22.633Z,59.80
2019-05-13T21:43:53.483Z,60.40
2019-05-13T21:46:24.662Z,60.10
2019-05-13T21:48:55.482Z,61.00
2019-05-13T21:51:25.408Z,61.80
2019-05-13T21:53:55.394Z,61.90
2019-05-13T21:56:25.569Z,61.90
2019-05-13T21:58:55.694Z,62.40
2019-05-13T22:01:26.076Z,61.70
2019-05-13T22:03:56.268Z,62.80
2019-05-13T22:06:26.382Z,63.10
2019-05-13T22:08:56.274Z,63.80
2019-05-13T22:11:26.186Z,64.50
2019-05-13T22:13:57.208Z,63.50
2019-05-13T22:16:27.096Z,63.40
2019-05-13T22:19:01.391Z,63.50
2019-05-13T22:21:31.577Z,64.30
2019-05-13T22:24:02.261Z,64.50
2019-05-13T22:26:32.347Z,65.40
2019-05-13T22:29:02.871Z,65.90
2019-05-13T22:31:33.156Z,66.20
2019-05-13T22:34:03.121Z,66.50
2019-05-13T22:36:33.322Z,66.50
2019-05-13T22:39:05.051Z,66.50
2019-05-13T22:41:35.550Z,66.50
2019-05-13T22:44:05.479Z,66.20
2019-05-13T22:46:35.665Z,66.00
2019-05-13T22:49:05.831Z,65.70
2019-05-13T22:51:36.991Z,66.00
2019-05-13T22:54:07.204Z,66.50
2019-05-13T22:56:37.464Z,66.60
2019-05-13T22:59:07.272Z,67.20
2019-05-13T23:01:37.479Z,66.50
2019-05-13T23:04:07.710Z,67.10
2019-05-13T23:06:41.425Z,67.70
2019-05-13T23:09:12.536Z,67.70
2019-05-13T23:11:42.761Z,67.40
2019-05-13T23:14:13.604Z,67.50
2019-05-13T23:16:43.894Z,68.10
2019-05-13T23:19:14.118Z,68.50
2019-05-13T23:21:44.266Z,69.50
2019-05-13T23:24:14.364Z,69.80
2019-05-13T23:26:44.622Z,70.40
2019-05-13T23:29:14.783Z,70.20
2019-05-13T23:31:44.957Z,70.20
2019-05-13T23:34:15.227Z,70.00
2019-05-13T23:36:45.153Z,70.20
2019-05-13T23:39:15.322Z,70.30
2019-05-13T23:41:45.415Z,70.20
2019-05-13T23:44:24.962Z,70.70
2019-05-13T23:46:47.256Z,70.40
2019-05-13T23:49:17.672Z,70.60
2019-05-13T23:51:48.706Z,71.00
2019-05-13T23:54:21.143Z,71.00
2019-05-13T23:56:50.674Z,71.20
2019-05-13T23:59:21.872Z,71.30
